createdAt,value
2019-03-03T00:02:15.795Z,9.40
2019-03-03T00:04:47.440Z,9.40
2019-03-03T00:07:19.571Z,9.40
2019-03-03T00:09:49.356Z,9.40
2019-03-03T00:12:19.859Z,9.40
2019-03-03T00:14:50.581Z,9.40
2019-03-03T00:17:22.341Z,9.40
2019-03-03T00:19:52.646Z,9.40
2019-03-03T00:22:26.692Z,9.40
2019-03-03T00:24:58.032Z,9.40
2019-03-03T00:27:29.533Z,9.40
2019-03-03T00:30:02.573Z,9.40
2019-03-03T00:32:33.196Z,9.40
2019-03-03T00:35:03.285Z,9.50
2019-03-03T00:38:10.831Z,9.40
2019-03-03T00:40:52.313Z,9.40
2019-03-03T00:43:36.863Z,9.40
2019-03-03T00:46:31.582Z,9.40
2019-03-03T00:49:30.190Z,9.50
2019-03-03T00:52:20.339Z,9.40
2019-03-03T00:55:09.612Z,9.40
2019-03-03T00:58:13.626Z,9.40
2019-03-03T01:00:51.284Z,9.40
2019-03-03T01:03:47.044Z,9.40
2019-03-03T01:06:45.425Z,9.40
2019-03-03T01:09:35.821Z,9.40
2019-03-03T01:12:24.169Z,9.40
2019-03-03T01:15:00.751Z,9.40
2019-03-03T01:17:59.226Z,9.40
2019-03-03T01:20:40.846Z,9.40
2019-03-03T01:23:43.549Z,9.40
2019-03-03T01:26:14.032Z,9.50
2019-03-03T01:28:44.348Z,9.50
2019-03-03T01:31:17.344Z,9.50
2019-03-03T01:33:49.020Z,9.50
2019-03-03T01:36:21.329Z,9.60
2019-03-03T01:38:51.920Z,9.50
2019-03-03T01:41:22.292Z,9.60
2019-03-03T01:43:52.536Z,9.60
2019-03-03T01:46:23.018Z,9.70
2019-03-03T01:48:53.084Z,9.70
2019-03-03T01:51:23.541Z,9.70
2019-03-03T01:53:53.800Z,9.80
2019-03-03T01:56:24.253Z,9.80
2019-03-03T01:58:54.433Z,9.80
2019-03-03T02:01:24.637Z,9.80
2019-03-03T02:03:55.253Z,9.80
2019-03-03T02:06:25.405Z,9.80
2019-03-03T02:08:55.798Z,9.90
2019-03-03T02:11:25.860Z,9.80
2019-03-03T02:13:56.303Z,9.80
2019-03-03T02:16:26.548Z,9.80
2019-03-03T02:18:56.763Z,9.80
2019-03-03T02:21:27.089Z,9.80
2019-03-03T02:23:57.229Z,9.90
2019-03-03T02:26:27.571Z,9.90
2019-03-03T02:28:58.151Z,9.80
2019-03-03T02:31:28.674Z,9.90
2019-03-03T02:33:58.840Z,9.80
2019-03-03T02:36:31.312Z,9.90
2019-03-03T02:39:01.642Z,9.90
2019-03-03T02:41:32.283Z,9.80
2019-03-03T02:44:02.446Z,9.80
2019-03-03T02:46:33.727Z,9.80
2019-03-03T02:49:03.917Z,9.80
2019-03-03T02:51:34.066Z,9.80
2019-03-03T02:54:06.461Z,9.80
2019-03-03T02:56:37.040Z,9.80
2019-03-03T02:59:07.095Z,9.90
2019-03-03T03:01:41.236Z,9.90
2019-03-03T03:04:11.581Z,9.80
2019-03-03T03:07:04.237Z,9.80
2019-03-03T03:10:02.488Z,9.80
2019-03-03T03:12:46.348Z,9.80
2019-03-03T03:15:44.303Z,9.80
2019-03-03T03:18:42.892Z,9.80
2019-03-03T03:21:30.830Z,9.80
2019-03-03T03:24:20.821Z,9.80
2019-03-03T03:26:59.579Z,9.80
2019-03-03T03:29:37.136Z,9.80
2019-03-03T03:32:26.206Z,9.80
2019-03-03T03:35:15.479Z,9.80
2019-03-03T03:38:07.809Z,9.80
2019-03-03T03:40:56.195Z,9.90
2019-03-03T03:43:48.805Z,9.80
2019-03-03T03:46:36.745Z,9.90
2019-03-03T03:49:17.412Z,9.90
2019-03-03T03:51:55.204Z,9.90
2019-03-03T03:54:46.228Z,10.00
2019-03-03T03:57:42.357Z,10.00
2019-03-03T04:00:36.029Z,10.00
2019-03-03T04:03:14.021Z,10.00
2019-03-03T04:06:02.480Z,10.00
2019-03-03T04:08:42.369Z,10.00
2019-03-03T04:11:38.562Z,10.00
2019-03-03T04:14:32.165Z,10.00
2019-03-03T04:17:20.486Z,10.00
2019-03-03T04:19:58.835Z,10.00
2019-03-03T04:22:42.065Z,10.00
2019-03-03T04:25:30.365Z,10.00
2019-03-03T04:28:32.152Z,10.00
2019-03-03T04:31:21.912Z,10.00
2019-03-03T04:34:09.011Z,10.00
2019-03-03T04:36:58.923Z,10.00
2019-03-03T04:39:54.427Z,10.00
2019-03-03T04:42:33.969Z,10.00
2019-03-03T04:45:26.531Z,10.00
2019-03-03T04:48:12.311Z,10.10
2019-03-03T04:51:02.088Z,10.00
2019-03-03T04:53:50.435Z,10.00
2019-03-03T04:56:40.656Z,9.90
2019-03-03T04:59:35.734Z,9.80
2019-03-03T05:02:28.380Z,9.70
2019-03-03T05:05:18.677Z,9.60
2019-03-03T05:08:26.480Z,9.60
2019-03-03T05:11:22.410Z,9.50
2019-03-03T05:13:57.674Z,9.40
2019-03-03T05:16:42.506Z,9.40
2019-03-03T05:19:19.621Z,9.40
2019-03-03T05:21:50.203Z,9.30
2019-03-03T05:24:20.197Z,9.30
2019-03-03T05:26:52.905Z,9.30
2019-03-03T05:29:26.132Z,9.30
2019-03-03T05:31:56.855Z,9.20
2019-03-03T05:34:26.940Z,9.20
2019-03-03T05:36:57.694Z,9.10
2019-03-03T05:39:27.799Z,9.10
2019-03-03T05:41:57.884Z,9.10
2019-03-03T05:44:28.530Z,9.00
2019-03-03T05:46:59.011Z,9.10
2019-03-03T05:49:29.075Z,9.10
2019-03-03T05:51:59.245Z,9.10
2019-03-03T05:54:29.674Z,9.20
2019-03-03T05:57:00.240Z,9.10
2019-03-03T05:59:34.613Z,9.30
2019-03-03T06:02:07.501Z,9.20
2019-03-03T06:04:39.284Z,9.20
2019-03-03T06:07:10.697Z,9.20
2019-03-03T06:09:42.038Z,9.20
2019-03-03T06:12:13.969Z,9.20
2019-03-03T06:14:44.145Z,9.10
2019-03-03T06:17:14.353Z,9.10
2019-03-03T06:19:44.452Z,9.00
2019-03-03T06:22:14.473Z,9.00
2019-03-03T06:24:44.832Z,9.00
2019-03-03T06:27:15.104Z,9.00
2019-03-03T06:29:45.756Z,9.00
2019-03-03T06:32:15.926Z,9.00
2019-03-03T06:34:49.773Z,9.00
2019-03-03T06:37:20.181Z,9.00
2019-03-03T06:39:50.570Z,9.00
2019-03-03T06:42:21.395Z,8.90
2019-03-03T06:44:53.825Z,8.90
2019-03-03T06:47:24.113Z,8.90
2019-03-03T06:49:56.106Z,8.80
2019-03-03T06:52:26.282Z,8.80
2019-03-03T06:54:56.452Z,8.90
2019-03-03T06:57:26.914Z,8.80
2019-03-03T06:59:57.437Z,8.80
2019-03-03T07:02:27.610Z,8.80
2019-03-03T07:04:57.799Z,8.80
2019-03-03T07:07:27.803Z,8.80
2019-03-03T07:09:57.992Z,8.90
2019-03-03T07:12:28.409Z,8.80
2019-03-03T07:14:59.252Z,8.80
2019-03-03T07:17:29.331Z,8.80
2019-03-03T07:20:01.208Z,8.80
2019-03-03T07:22:31.379Z,8.90
2019-03-03T07:25:01.463Z,8.90
2019-03-03T07:27:31.673Z,8.90
2019-03-03T07:30:02.360Z,8.90
2019-03-03T07:32:35.519Z,8.90
2019-03-03T07:35:05.739Z,8.90
2019-03-03T07:37:36.165Z,8.90
2019-03-03T07:40:07.216Z,9.00
2019-03-03T07:42:37.352Z,9.00
2019-03-03T07:45:09.131Z,9.00
2019-03-03T07:47:39.308Z,9.00
2019-03-03T07:52:50.549Z,9.00
2019-03-03T07:55:20.927Z,9.00
2019-03-03T07:57:51.161Z,9.00
2019-03-03T08:00:21.953Z,9.00
2019-03-03T08:02:51.947Z,9.00
2019-03-03T08:05:22.249Z,9.00
2019-03-03T08:07:55.941Z,9.00
2019-03-03T08:10:26.112Z,9.10
2019-03-03T08:12:56.294Z,9.00
2019-03-03T08:15:27.133Z,9.10
2019-03-03T08:17:59.222Z,9.10
2019-03-03T08:20:33.578Z,9.10
2019-03-03T08:23:06.398Z,9.10
2019-03-03T08:25:38.261Z,9.10
2019-03-03T08:28:08.520Z,9.10
2019-03-03T08:30:38.650Z,9.10
2019-03-03T08:33:12.371Z,9.10
2019-03-03T08:35:42.531Z,9.20
2019-03-03T08:38:12.668Z,9.20
2019-03-03T08:40:42.772Z,9.20
2019-03-03T08:43:31.763Z,9.20
2019-03-03T08:46:23.951Z,9.30
2019-03-03T08:49:09.043Z,9.20
2019-03-03T08:51:53.988Z,9.20
2019-03-03T08:54:46.424Z,9.30
2019-03-03T08:57:41.641Z,9.30
2019-03-03T09:00:32.337Z,9.30
2019-03-03T09:03:24.201Z,9.30
2019-03-03T09:06:07.573Z,9.30
2019-03-03T09:08:49.486Z,9.30
2019-03-03T09:11:41.630Z,9.40
2019-03-03T09:14:35.307Z,9.40
2019-03-03T09:17:31.993Z,9.40
2019-03-03T09:20:22.349Z,9.40
2019-03-03T09:23:21.236Z,9.40
2019-03-03T09:26:19.619Z,9.50
2019-03-03T09:29:16.161Z,9.50
2019-03-03T09:32:08.401Z,9.40
2019-03-03T09:34:53.898Z,9.40
2019-03-03T09:37:52.364Z,9.50
2019-03-03T09:40:44.603Z,9.50
2019-03-03T09:43:20.256Z,9.50
2019-03-03T09:46:12.113Z,9.50
2019-03-03T09:48:54.191Z,9.50
2019-03-03T09:51:42.573Z,9.50
2019-03-03T09:54:50.557Z,9.60
2019-03-03T09:57:38.274Z,9.60
2019-03-03T10:00:37.381Z,9.60
2019-03-03T10:03:19.301Z,9.60
2019-03-03T10:06:03.837Z,9.60
2019-03-03T10:08:43.504Z,9.60
2019-03-03T10:11:34.080Z,9.60
2019-03-03T10:14:20.883Z,9.60
2019-03-03T10:16:59.300Z,9.70
2019-03-03T10:19:43.968Z,9.60
2019-03-03T10:22:29.237Z,9.60
2019-03-03T10:25:13.516Z,9.60
2019-03-03T10:27:58.723Z,9.70
2019-03-03T10:30:53.672Z,9.70
2019-03-03T10:33:49.594Z,9.70
2019-03-03T10:36:34.785Z,9.70
2019-03-03T10:39:16.587Z,9.80
2019-03-03T10:42:10.345Z,9.80
2019-03-03T10:44:59.829Z,9.80
2019-03-03T10:47:51.750Z,9.90
2019-03-03T10:50:30.989Z,9.80
2019-03-03T10:53:29.949Z,9.80
2019-03-03T10:56:22.172Z,9.90
2019-03-03T10:59:19.876Z,9.90
2019-03-03T11:02:01.970Z,9.90
2019-03-03T11:04:51.248Z,9.90
2019-03-03T11:07:46.981Z,9.90
2019-03-03T11:10:39.324Z,10.00
2019-03-03T11:13:47.293Z,10.00
2019-03-03T11:16:40.074Z,10.00
2019-03-03T11:19:48.696Z,10.00
2019-03-03T11:22:30.711Z,10.00
2019-03-03T11:25:27.254Z,10.10
2019-03-03T11:28:31.122Z,10.10
2019-03-03T11:31:35.891Z,10.10
2019-03-03T11:34:20.965Z,10.10
2019-03-03T11:37:00.625Z,10.10
2019-03-03T11:39:49.971Z,10.20
2019-03-03T11:42:38.621Z,10.20
2019-03-03T11:45:25.944Z,10.20
2019-03-03T11:48:21.871Z,10.30
2019-03-03T11:51:03.250Z,10.30
2019-03-03T11:54:02.248Z,10.30
2019-03-03T11:57:01.453Z,10.30
2019-03-03T12:00:10.013Z,10.40
2019-03-03T12:02:53.910Z,10.40
2019-03-03T12:05:49.638Z,10.40
2019-03-03T12:08:38.201Z,10.40
2019-03-03T12:11:26.339Z,10.40
2019-03-03T12:14:18.008Z,10.50
2019-03-03T12:16:55.467Z,10.50
2019-03-03T12:19:40.177Z,10.50
2019-03-03T12:22:31.777Z,10.50
2019-03-03T12:25:21.691Z,10.50
2019-03-03T12:28:10.075Z,10.50
2019-03-03T12:31:01.038Z,10.60
2019-03-03T12:33:53.731Z,10.60
2019-03-03T12:36:34.115Z,10.60
2019-03-03T12:39:15.889Z,10.60
2019-03-03T12:42:03.573Z,10.60
2019-03-03T12:45:04.560Z,10.60
2019-03-03T12:47:55.071Z,10.70
2019-03-03T12:50:38.996Z,10.70
2019-03-03T12:53:34.324Z,10.70
2019-03-03T12:56:25.323Z,10.70
2019-03-03T12:59:13.472Z,10.80
2019-03-03T13:02:03.435Z,10.80
2019-03-03T13:04:41.549Z,10.80
2019-03-03T13:07:28.117Z,10.80
2019-03-03T13:10:35.723Z,10.80
2019-03-03T13:13:19.300Z,10.70
2019-03-03T13:16:12.771Z,10.80
2019-03-03T13:19:17.107Z,10.80
2019-03-03T13:22:06.413Z,10.80
2019-03-03T13:24:49.332Z,10.80
2019-03-03T13:27:44.356Z,10.80
2019-03-03T13:30:34.787Z,10.80
2019-03-03T13:33:35.756Z,10.80
2019-03-03T13:36:30.323Z,10.90
2019-03-03T13:39:51.852Z,10.90
2019-03-03T13:42:41.794Z,11.00
2019-03-03T13:45:12.919Z,11.00
2019-03-03T13:47:50.045Z,11.00
2019-03-03T13:50:26.162Z,11.10
2019-03-03T13:52:56.599Z,11.10
2019-03-03T13:55:28.413Z,11.10
2019-03-03T13:58:13.762Z,11.10
2019-03-03T14:00:43.964Z,11.10
2019-03-03T14:03:18.237Z,11.10
2019-03-03T14:05:51.301Z,11.10
2019-03-03T14:08:21.551Z,11.00
2019-03-03T14:10:53.230Z,11.00
2019-03-03T14:13:23.524Z,11.00
2019-03-03T14:15:53.853Z,11.00
2019-03-03T14:18:27.250Z,11.00
2019-03-03T14:20:57.534Z,11.00
2019-03-03T14:23:27.652Z,11.00
2019-03-03T14:25:58.577Z,11.00
2019-03-03T14:28:31.819Z,11.00
2019-03-03T14:31:06.896Z,11.00
2019-03-03T14:33:40.384Z,11.00
2019-03-03T14:36:13.682Z,11.00
2019-03-03T14:38:43.835Z,10.90
2019-03-03T14:41:14.198Z,11.00
2019-03-03T14:43:44.464Z,11.00
2019-03-03T14:46:15.025Z,10.90
2019-03-03T14:48:45.383Z,10.90
2019-03-03T14:51:15.820Z,10.80
2019-03-03T14:53:46.145Z,10.90
2019-03-03T14:56:18.029Z,10.90
2019-03-03T14:58:53.084Z,10.90
2019-03-03T15:01:23.388Z,10.90
2019-03-03T15:03:53.580Z,10.80
2019-03-03T15:06:25.494Z,10.90
2019-03-03T15:08:56.011Z,10.80
2019-03-03T15:11:26.150Z,10.80
2019-03-03T15:13:58.463Z,10.80
2019-03-03T15:16:30.591Z,10.80
2019-03-03T15:19:03.931Z,10.80
2019-03-03T15:21:33.935Z,10.80
2019-03-03T15:24:07.872Z,10.70
2019-03-03T15:26:45.220Z,10.70
2019-03-03T15:29:17.874Z,10.70
2019-03-03T15:31:48.640Z,10.70
2019-03-03T15:34:21.064Z,10.70
2019-03-03T15:36:52.712Z,10.70
2019-03-03T15:39:22.784Z,10.80
2019-03-03T15:41:53.314Z,10.70
2019-03-03T15:44:23.976Z,10.70
2019-03-03T15:46:54.206Z,10.70
2019-03-03T15:49:27.581Z,10.70
2019-03-03T15:52:00.286Z,10.60
2019-03-03T15:54:33.049Z,10.60
2019-03-03T15:57:03.140Z,10.70
2019-03-03T15:59:33.269Z,10.60
2019-03-03T16:02:05.804Z,10.60
2019-03-03T16:04:35.854Z,10.60
2019-03-03T16:07:09.941Z,10.60
2019-03-03T16:09:41.737Z,10.60
2019-03-03T16:12:12.104Z,10.60
2019-03-03T16:14:45.901Z,10.70
2019-03-03T16:17:16.426Z,10.70
2019-03-03T16:19:48.194Z,10.70
2019-03-03T16:22:18.966Z,10.70
2019-03-03T16:24:52.585Z,10.70
2019-03-03T16:27:30.728Z,10.70
2019-03-03T16:30:04.331Z,10.70
2019-03-03T16:32:34.900Z,10.70
2019-03-03T16:35:08.365Z,10.70
2019-03-03T16:37:40.477Z,10.70
2019-03-03T16:40:12.929Z,10.70
2019-03-03T16:42:43.568Z,10.80
2019-03-03T16:45:16.754Z,10.80
2019-03-03T16:47:47.313Z,10.70
2019-03-03T16:50:20.958Z,10.70
2019-03-03T16:52:54.311Z,10.70
2019-03-03T16:55:29.237Z,10.80
2019-03-03T16:57:59.993Z,10.80
2019-03-03T17:00:30.278Z,10.70
2019-03-03T17:03:00.685Z,10.80
2019-03-03T17:05:30.986Z,10.80
2019-03-03T17:08:01.276Z,10.80
2019-03-03T17:10:31.952Z,10.80
2019-03-03T17:13:02.224Z,10.90
2019-03-03T17:15:35.803Z,10.90
2019-03-03T17:18:19.737Z,10.90
2019-03-03T17:20:51.518Z,10.90
2019-03-03T17:23:27.318Z,10.90
2019-03-03T17:25:57.972Z,10.90
2019-03-03T17:28:28.453Z,10.90
2019-03-03T17:31:00.173Z,10.90
2019-03-03T17:33:30.363Z,10.90
2019-03-03T17:36:02.151Z,10.90
2019-03-03T17:38:35.355Z,10.90
2019-03-03T17:41:05.866Z,11.00
2019-03-03T17:43:36.231Z,11.00
2019-03-03T17:46:08.123Z,11.00
2019-03-03T17:48:39.019Z,11.00
2019-03-03T17:51:12.614Z,11.00
2019-03-03T17:53:42.723Z,11.00
2019-03-03T17:56:15.816Z,11.00
2019-03-03T17:58:46.037Z,11.10
2019-03-03T18:01:16.558Z,11.10
2019-03-03T18:03:47.289Z,11.10
2019-03-03T18:06:21.204Z,11.10
2019-03-03T18:08:52.766Z,11.20
2019-03-03T18:11:23.112Z,11.20
2019-03-03T18:13:53.331Z,11.20
2019-03-03T18:16:23.638Z,11.20
2019-03-03T18:18:58.975Z,11.10
2019-03-03T18:21:29.598Z,11.10
2019-03-03T18:24:02.588Z,11.20
2019-03-03T18:26:35.325Z,11.20
2019-03-03T18:29:12.290Z,11.20
2019-03-03T18:31:45.821Z,11.20
2019-03-03T18:34:17.869Z,11.20
2019-03-03T18:36:51.025Z,11.20
2019-03-03T18:39:22.637Z,11.20
2019-03-03T18:41:53.491Z,11.10
2019-03-03T18:44:25.804Z,11.20
2019-03-03T18:46:56.931Z,11.20
2019-03-03T18:49:29.548Z,11.20
2019-03-03T18:52:03.098Z,11.30
2019-03-03T18:54:38.892Z,11.30
2019-03-03T18:57:07.700Z,11.30
2019-03-03T18:59:41.342Z,11.30
2019-03-03T19:02:13.524Z,11.30
2019-03-03T19:04:44.087Z,11.40
2019-03-03T19:07:17.739Z,11.30
2019-03-03T19:09:55.305Z,11.30
2019-03-03T19:12:29.367Z,11.30
2019-03-03T19:14:58.754Z,11.40
2019-03-03T19:17:29.961Z,11.30
2019-03-03T19:20:05.160Z,11.40
2019-03-03T19:22:36.832Z,11.40
2019-03-03T19:25:12.536Z,11.40
2019-03-03T19:27:43.223Z,11.50
2019-03-03T19:30:23.179Z,11.40
2019-03-03T19:32:57.003Z,11.40
2019-03-03T19:35:29.456Z,11.40
2019-03-03T19:38:01.270Z,11.40
2019-03-03T19:40:34.525Z,11.50
2019-03-03T19:43:06.697Z,11.40
2019-03-03T19:45:37.138Z,11.50
2019-03-03T19:48:09.662Z,11.40
2019-03-03T19:50:41.436Z,11.40
2019-03-03T19:53:14.632Z,11.40
2019-03-03T19:55:45.559Z,11.40
2019-03-03T19:58:15.967Z,11.40
2019-03-03T20:00:49.342Z,11.40
2019-03-03T20:03:25.632Z,11.40
2019-03-03T20:05:57.699Z,11.40
2019-03-03T20:08:28.586Z,11.40
2019-03-03T20:11:02.287Z,11.40
2019-03-03T20:13:33.020Z,11.40
2019-03-03T20:16:06.684Z,11.30
2019-03-03T20:18:37.041Z,11.30
2019-03-03T20:21:07.682Z,11.30
2019-03-03T20:23:38.540Z,11.30
2019-03-03T20:26:10.916Z,11.40
2019-03-03T20:28:44.390Z,11.40
2019-03-03T20:31:14.723Z,11.40
2019-03-03T20:33:45.012Z,11.40
2019-03-03T20:36:15.957Z,11.40
2019-03-03T20:38:47.551Z,11.30
2019-03-03T20:41:20.293Z,11.40
2019-03-03T20:43:51.923Z,11.30
2019-03-03T20:46:22.138Z,11.30
2019-03-03T20:48:52.881Z,11.40
2019-03-03T20:51:23.425Z,11.30
2019-03-03T20:53:55.510Z,11.30
2019-03-03T20:56:26.216Z,11.30
2019-03-03T20:58:56.296Z,11.30
2019-03-03T21:01:31.224Z,11.20
2019-03-03T21:04:01.456Z,11.20
2019-03-03T21:06:32.741Z,11.20
2019-03-03T21:09:05.041Z,11.00
2019-03-03T21:11:41.250Z,11.00
2019-03-03T21:14:13.187Z,11.10
2019-03-03T21:16:50.628Z,11.10
2019-03-03T21:19:21.039Z,11.10
2019-03-03T21:21:51.272Z,11.10
2019-03-03T21:24:24.073Z,11.20
2019-03-03T21:26:57.622Z,11.10
2019-03-03T21:29:31.022Z,11.10
2019-03-03T21:32:02.175Z,11.10
2019-03-03T21:34:32.829Z,11.10
2019-03-03T21:37:03.320Z,11.10
2019-03-03T21:39:33.589Z,11.10
2019-03-03T21:42:03.838Z,11.10
2019-03-03T21:45:11.763Z,11.00
2019-03-03T21:47:43.413Z,11.10
2019-03-03T21:50:15.839Z,11.10
2019-03-03T21:52:46.576Z,11.10
2019-03-03T21:55:16.950Z,11.10
2019-03-03T21:57:47.788Z,11.20
2019-03-03T22:00:28.883Z,11.10
2019-03-03T22:02:59.584Z,11.10
2019-03-03T22:05:33.873Z,11.10
2019-03-03T22:08:04.369Z,11.20
2019-03-03T22:10:37.473Z,11.20
2019-03-03T22:13:11.252Z,11.20
2019-03-03T22:15:41.616Z,11.20
2019-03-03T22:18:20.914Z,11.20
2019-03-03T22:20:52.769Z,11.30
2019-03-03T22:23:26.273Z,11.30
2019-03-03T22:25:56.885Z,11.30
2019-03-03T22:28:27.093Z,11.30
2019-03-03T22:30:57.549Z,11.40
2019-03-03T22:33:28.555Z,11.40
2019-03-03T22:36:00.757Z,11.40
2019-03-03T22:38:37.670Z,11.40
2019-03-03T22:41:08.429Z,11.40
2019-03-03T22:43:40.845Z,11.40
2019-03-03T22:46:11.457Z,11.40
2019-03-03T22:48:45.273Z,11.30
2019-03-03T22:51:15.653Z,11.50
2019-03-03T22:53:46.168Z,11.40
2019-03-03T22:56:16.914Z,11.40
2019-03-03T22:58:49.917Z,11.40
2019-03-03T23:01:27.363Z,11.40
2019-03-03T23:04:30.122Z,11.40
2019-03-03T23:07:10.140Z,11.40
2019-03-03T23:10:10.632Z,11.30
2019-03-03T23:12:55.914Z,11.40
2019-03-03T23:16:13.592Z,11.40
2019-03-03T23:19:30.809Z,11.30
2019-03-03T23:23:09.753Z,11.30
2019-03-03T23:25:57.690Z,11.30
2019-03-03T23:28:28.437Z,11.20
2019-03-03T23:31:00.406Z,11.20
2019-03-03T23:33:30.748Z,11.20
2019-03-03T23:36:01.424Z,11.20
2019-03-03T23:38:32.088Z,11.30
2019-03-03T23:41:03.224Z,11.30
2019-03-03T23:43:33.897Z,11.30
2019-03-03T23:46:04.104Z,11.40
2019-03-03T23:48:34.408Z,11.50
2019-03-03T23:51:04.629Z,11.40
2019-03-03T23:53:34.953Z,11.50
2019-03-03T23:56:06.375Z,11.50
2019-03-03T23:58:38.495Z,11.50
